createdAt,value
2023-02-06T00:04:53.114Z,16.25
2023-02-06T00:09:54.546Z,13.48
2023-02-06T00:14:56.001Z,13.98
2023-02-06T00:19:57.417Z,17.98
2023-02-06T00:24:58.863Z,21.23
2023-02-06T00:30:00.382Z,18.88
2023-02-06T00:35:01.928Z,10.75
2023-02-06T00:40:03.448Z,14.30
2023-02-06T00:45:05.892Z,11.07
2023-02-06T00:50:07.603Z,15.45
2023-02-06T00:55:09.084Z,10.77
2023-02-06T01:00:11.129Z,13.48
2023-02-06T01:05:12.563Z,13.20
2023-02-06T01:10:14.076Z,11.30
2023-02-06T01:15:15.618Z,16.27
2023-02-06T01:20:17.248Z,16.52
2023-02-06T01:25:18.780Z,12.77
2023-02-06T01:30:20.261Z,12.15
2023-02-06T01:35:21.727Z,17.23
2023-02-06T01:40:23.289Z,19.45
2023-02-06T01:45:39.912Z,16.33
2023-02-06T01:50:46.178Z,17.75
2023-02-06T01:55:49.657Z,18.15
2023-02-06T02:00:51.374Z,14.23
2023-02-06T02:05:57.166Z,15.25
2023-02-06T02:11:03.161Z,11.57
2023-02-06T02:16:20.208Z,16.33
2023-02-06T02:21:39.609Z,15.85
2023-02-06T02:32:59.697Z,11.38
2023-02-06T02:38:10.293Z,12.95
2023-02-06T02:43:28.440Z,12.32
2023-02-06T02:48:35.950Z,16.38
2023-02-06T02:53:37.506Z,14.70
2023-02-06T02:58:39.742Z,13.82
2023-02-06T03:03:44.927Z,13.60
2023-02-06T03:09:02.969Z,11.73
2023-02-06T03:14:21.998Z,18.75
2023-02-06T03:19:30.722Z,17.13
2023-02-06T03:24:38.001Z,14.25
2023-02-06T03:29:41.833Z,11.45
2023-02-06T03:34:53.679Z,10.93
2023-02-06T03:39:59.020Z,14.88
2023-02-06T03:45:06.364Z,14.32
2023-02-06T03:50:10.691Z,12.50
2023-02-06T03:55:21.718Z,11.77
2023-02-06T04:00:23.509Z,12.68
2023-02-06T04:05:25.411Z,13.50
2023-02-06T04:10:26.884Z,8.25
2023-02-06T04:15:28.356Z,11.85
2023-02-06T04:20:30.061Z,15.20
2023-02-06T04:25:31.510Z,12.65
2023-02-06T04:30:32.982Z,10.52
2023-02-06T04:35:34.633Z,11.50
2023-02-06T04:45:38.923Z,10.35
2023-02-06T04:50:40.422Z,9.57
2023-02-06T04:55:41.842Z,16.15
2023-02-06T05:00:43.266Z,11.98
2023-02-06T05:05:45.355Z,14.93
2023-02-06T05:10:46.961Z,15.45
2023-02-06T05:15:48.676Z,12.57
2023-02-06T05:20:50.118Z,13.77
2023-02-06T05:25:51.563Z,16.13
2023-02-06T05:30:53.478Z,8.55
2023-02-06T05:36:00.505Z,12.02
2023-02-06T05:41:01.973Z,9.68
2023-02-06T05:46:03.604Z,8.73
2023-02-06T05:51:05.293Z,11.73
2023-02-06T05:56:06.902Z,11.20
2023-02-06T06:01:08.356Z,14.13
2023-02-06T06:06:09.990Z,10.20
2023-02-06T06:11:11.478Z,11.13
2023-02-06T06:16:13.011Z,11.85
2023-02-06T06:21:14.500Z,12.15
2023-02-06T06:26:16.422Z,14.70
2023-02-06T06:31:18.066Z,13.35
2023-02-06T06:36:19.814Z,15.90
2023-02-06T06:41:21.243Z,15.98
2023-02-06T06:46:22.917Z,13.90
2023-02-06T06:51:26.646Z,15.02
2023-02-06T06:56:28.292Z,16.20
2023-02-06T07:01:29.717Z,12.50
2023-02-06T07:06:31.166Z,13.40
2023-02-06T07:11:32.600Z,13.88
2023-02-06T07:16:34.043Z,17.00
2023-02-06T07:21:35.771Z,12.48
2023-02-06T07:26:37.197Z,13.18
2023-02-06T07:31:38.796Z,17.00
2023-02-06T07:36:40.274Z,12.02
2023-02-06T07:41:42.813Z,14.52
2023-02-06T07:46:47.697Z,19.08
2023-02-06T07:51:49.175Z,13.50
2023-02-06T07:56:50.596Z,16.67
2023-02-06T08:01:52.540Z,17.98
2023-02-06T08:06:53.962Z,20.05
2023-02-06T08:11:55.401Z,19.25
2023-02-06T08:16:56.865Z,16.55
2023-02-06T08:21:58.434Z,14.15
2023-02-06T08:26:59.869Z,14.77
2023-02-06T08:32:01.980Z,22.70
2023-02-06T08:37:03.935Z,17.45
2023-02-06T08:42:05.393Z,18.15
2023-02-06T08:47:10.502Z,22.33
2023-02-06T08:52:12.139Z,26.88
2023-02-06T08:57:13.623Z,22.15
2023-02-06T09:02:15.114Z,23.50
2023-02-06T09:07:17.377Z,23.42
2023-02-06T09:12:18.909Z,22.85
2023-02-06T09:17:20.460Z,18.35
2023-02-06T09:22:22.102Z,24.63
2023-02-06T09:27:23.543Z,15.77
2023-02-06T09:32:25.010Z,22.98
2023-02-06T09:37:26.438Z,19.33
2023-02-06T09:42:31.857Z,22.08
2023-02-06T09:47:37.558Z,16.17
2023-02-06T09:52:53.469Z,27.65
2023-02-06T09:58:19.241Z,21.73
2023-02-06T10:03:45.482Z,25.02
2023-02-06T10:08:59.309Z,23.20
2023-02-06T10:14:05.519Z,20.50
2023-02-06T10:19:17.681Z,26.15
2023-02-06T10:24:32.561Z,21.67
2023-02-06T10:29:36.250Z,26.45
2023-02-06T10:35:00.568Z,27.95
2023-02-06T10:40:11.519Z,32.67
2023-02-06T10:45:36.426Z,23.70
2023-02-06T10:50:44.191Z,23.35
2023-02-06T10:55:55.453Z,23.27
2023-02-06T11:00:59.280Z,29.38
2023-02-06T11:06:02.135Z,12.43
2023-02-06T11:11:20.264Z,20.52
2023-02-06T11:16:27.325Z,33.08
2023-02-06T11:21:50.816Z,20.27
2023-02-06T11:26:57.589Z,36.67
2023-02-06T11:32:01.810Z,30.52
2023-02-06T11:37:06.237Z,21.30
2023-02-06T11:42:13.512Z,24.55
2023-02-06T11:47:37.731Z,37.30
2023-02-06T11:52:41.799Z,29.70
2023-02-06T11:57:43.373Z,37.17
2023-02-06T12:02:52.101Z,33.28
2023-02-06T12:07:56.683Z,40.33
2023-02-06T12:13:06.799Z,27.88
2023-02-06T12:18:27.476Z,32.03
2023-02-06T12:23:36.375Z,36.78
2023-02-06T12:33:54.708Z,38.17
2023-02-06T12:39:00.745Z,33.92
2023-02-06T12:44:11.365Z,40.17
2023-02-06T12:49:35.639Z,38.00
2023-02-06T12:54:53.822Z,16.33
2023-02-06T13:00:01.770Z,45.83
2023-02-06T13:05:17.308Z,38.45
2023-02-06T13:10:23.571Z,33.10
2023-02-06T13:15:36.103Z,35.85
2023-02-06T13:21:14.611Z,40.08
2023-02-06T13:26:16.496Z,29.10
2023-02-06T13:31:26.620Z,32.95
2023-02-06T13:36:44.017Z,33.95
2023-02-06T13:41:45.500Z,38.22
2023-02-06T13:47:34.660Z,39.28
2023-02-06T13:53:14.301Z,31.33
2023-02-06T13:58:45.672Z,28.80
2023-02-06T14:03:50.358Z,34.05
2023-02-06T14:09:03.704Z,31.23
2023-02-06T14:14:31.097Z,17.65
2023-02-06T14:19:54.411Z,23.58
2023-02-06T14:25:10.130Z,24.38
2023-02-06T14:30:33.086Z,31.17
2023-02-06T14:35:52.740Z,28.55
2023-02-06T14:40:56.971Z,23.77
2023-02-06T14:46:07.635Z,23.00
2023-02-06T14:51:41.890Z,23.42
2023-02-06T14:56:43.362Z,19.25
2023-02-06T15:01:48.269Z,22.83
2023-02-06T15:07:01.947Z,20.85
2023-02-06T15:12:18.220Z,18.88
2023-02-06T15:17:21.482Z,20.83
2023-02-06T15:22:27.751Z,20.80
2023-02-06T15:27:34.756Z,20.38
2023-02-06T15:32:39.852Z,19.92
2023-02-06T15:37:41.314Z,16.33
2023-02-06T15:42:43.132Z,18.83
2023-02-06T15:47:46.081Z,17.15
2023-02-06T15:52:48.140Z,17.10
2023-02-06T15:57:51.115Z,19.65
2023-02-06T16:02:56.572Z,19.67
2023-02-06T16:07:58.891Z,21.85
2023-02-06T16:13:01.906Z,19.08
2023-02-06T16:18:24.960Z,16.75
2023-02-06T16:23:30.734Z,12.15
2023-02-06T16:28:32.159Z,11.30
2023-02-06T16:33:38.357Z,20.17
2023-02-06T16:38:40.050Z,8.95
2023-02-06T16:43:42.091Z,13.85
2023-02-06T16:48:43.652Z,18.65
2023-02-06T16:53:48.113Z,20.85
2023-02-06T16:58:49.694Z,21.15
2023-02-06T17:03:52.640Z,20.80
2023-02-06T17:08:58.795Z,17.50
2023-02-06T17:14:00.242Z,17.75
2023-02-06T17:19:01.686Z,17.83
2023-02-06T17:24:03.231Z,15.57
2023-02-06T17:29:04.678Z,17.73
2023-02-06T17:34:06.245Z,23.63
2023-02-06T17:39:07.696Z,10.13
2023-02-06T17:44:09.162Z,11.30
2023-02-06T17:49:10.685Z,19.05
2023-02-06T17:54:12.492Z,21.63
2023-02-06T17:59:13.984Z,18.80
2023-02-06T18:04:19.502Z,17.88
2023-02-06T18:09:20.953Z,23.33
2023-02-06T18:14:22.394Z,23.23
2023-02-06T18:19:25.214Z,14.93
2023-02-06T18:24:26.649Z,17.85
2023-02-06T18:29:34.645Z,16.52
2023-02-06T18:34:45.397Z,19.52
2023-02-06T18:39:47.175Z,18.77
2023-02-06T18:44:48.617Z,21.45
2023-02-06T18:49:50.041Z,22.02
2023-02-06T18:54:51.496Z,18.92
2023-02-06T18:59:53.376Z,19.90
2023-02-06T19:04:57.616Z,16.85
2023-02-06T19:10:00.647Z,29.02
2023-02-06T19:15:02.100Z,21.35
2023-02-06T19:20:04.536Z,18.98
2023-02-06T19:25:10.942Z,12.10
2023-02-06T19:30:13.778Z,21.83
2023-02-06T19:35:15.488Z,12.18
2023-02-06T19:40:17.210Z,22.85
2023-02-06T19:45:18.693Z,17.88
2023-02-06T19:50:20.146Z,17.55
2023-02-06T19:55:21.578Z,12.65
2023-02-06T20:00:23.190Z,25.20
2023-02-06T20:05:27.102Z,15.07
2023-02-06T20:10:29.124Z,15.50
2023-02-06T20:15:31.945Z,28.13
2023-02-06T20:30:39.973Z,12.93
2023-02-06T20:35:44.677Z,19.52
2023-02-06T20:40:51.052Z,14.43
2023-02-06T20:45:52.507Z,15.38
2023-02-06T20:50:58.409Z,16.30
2023-02-06T20:55:59.859Z,18.38
2023-02-06T21:01:01.330Z,14.25
2023-02-06T21:06:02.797Z,13.55
2023-02-06T21:11:05.649Z,17.33
2023-02-06T21:21:11.365Z,12.57
2023-02-06T21:26:13.884Z,16.35
2023-02-06T21:31:18.812Z,15.65
2023-02-06T21:36:21.116Z,24.27
2023-02-06T21:41:22.777Z,15.85
2023-02-06T21:46:24.494Z,21.45
2023-02-06T21:51:26.512Z,17.45
2023-02-06T21:56:28.375Z,26.13
2023-02-06T22:01:33.342Z,27.38
2023-02-06T22:06:37.568Z,27.92
2023-02-06T22:11:39.735Z,26.92
2023-02-06T22:16:41.624Z,23.20
2023-02-06T22:21:43.138Z,23.10
2023-02-06T22:26:45.164Z,26.70
2023-02-06T22:31:48.311Z,27.00
2023-02-06T22:36:51.129Z,28.65
2023-02-06T22:46:54.147Z,27.10
2023-02-06T22:51:57.900Z,22.92
2023-02-06T22:56:59.328Z,19.42
2023-02-06T23:02:00.809Z,20.30
2023-02-06T23:07:02.373Z,30.17
2023-02-06T23:12:04.197Z,33.10
2023-02-06T23:17:05.633Z,23.20
2023-02-06T23:22:07.889Z,22.23
2023-02-06T23:27:09.384Z,25.98
2023-02-06T23:32:11.023Z,24.88
2023-02-06T23:37:12.504Z,22.50
2023-02-06T23:42:13.966Z,23.73
2023-02-06T23:47:15.384Z,25.95
2023-02-06T23:52:16.856Z,26.17
2023-02-06T23:57:18.359Z,29.48
